createdAt,value
2022-09-07T00:00:22.734Z,20.9
2022-09-07T00:10:24.735Z,22.1
2022-09-07T00:20:26.577Z,20.6
2022-09-07T00:30:28.322Z,20.6
2022-09-07T00:40:30.405Z,20
2022-09-07T00:50:32.388Z,19.4
2022-09-07T01:00:34.188Z,19
2022-09-07T01:10:36.459Z,18.7
2022-09-07T01:20:38.904Z,18.3
2022-09-07T01:30:40.423Z,17.8
2022-09-07T01:40:42.878Z,17.4
2022-09-07T01:50:45.443Z,17.3
2022-09-07T02:10:49.626Z,17
2022-09-07T02:20:51.266Z,16.8
2022-09-07T02:30:53.862Z,16.9
2022-09-07T02:40:55.646Z,16.7
2022-09-07T02:50:57.926Z,16.6
2022-09-07T03:01:00.002Z,16.4
2022-09-07T03:11:02.066Z,16.3
2022-09-07T03:21:04.208Z,16.3
2022-09-07T03:31:06.247Z,16.4
2022-09-07T03:41:08.507Z,16.3
2022-09-07T03:51:11.006Z,16.2
2022-09-07T04:01:13.253Z,16.2
2022-09-07T04:11:15.190Z,16.1
2022-09-07T04:21:17.290Z,16.1
2022-09-07T04:31:19.717Z,15.8
2022-09-07T04:41:21.485Z,16.2
2022-09-07T04:51:23.549Z,15.9
2022-09-07T05:01:25.335Z,15.8
2022-09-07T05:11:29.334Z,15.8
2022-09-07T05:21:29.052Z,15.8
2022-09-07T05:31:31.690Z,15.9
2022-09-07T05:41:34.297Z,15.9
2022-09-07T05:51:36.446Z,16.1
2022-09-07T06:01:38.440Z,16.3
2022-09-07T06:11:40.727Z,16.2
2022-09-07T06:21:42.396Z,16.4
2022-09-07T06:42:00.916Z,16.9
2022-09-07T06:51:49.219Z,17
2022-09-07T07:01:51.833Z,17.1
2022-09-07T07:11:54.342Z,17.2
2022-09-07T07:22:14.221Z,17.3
2022-09-07T07:31:58.416Z,17.5
2022-09-07T07:42:02.969Z,17.8
2022-09-07T08:22:09.903Z,19
2022-09-07T08:32:11.812Z,19.7
2022-09-07T08:42:13.460Z,19.8
2022-09-07T08:52:15.295Z,19.6
2022-09-07T09:42:26.618Z,19.7
2022-09-07T11:03:24.761Z,20.8
2022-09-07T11:42:52.865Z,21.4
2022-09-07T12:33:03.000Z,22.5
2022-09-07T12:43:09.791Z,22.1
2022-09-07T13:03:49.344Z,22.7
2022-09-07T13:33:16.133Z,22.9
2022-09-07T13:43:18.624Z,23.4
2022-09-07T13:53:20.415Z,24.4
2022-09-07T14:03:22.957Z,23.6
2022-09-07T14:13:24.626Z,23.6
2022-09-07T14:23:26.437Z,23.7
2022-09-07T14:33:29.396Z,23.5
2022-09-07T14:43:31.131Z,23.2
2022-09-07T14:53:34.407Z,23.3
2022-09-07T15:03:34.987Z,23.2
2022-09-07T15:13:36.997Z,23.1
2022-09-07T15:23:39.853Z,23.1
2022-09-07T15:33:41.623Z,23.1
2022-09-07T15:43:44.030Z,22.7
2022-09-07T15:54:12.591Z,22.5
2022-09-07T16:03:48.865Z,23
2022-09-07T16:23:51.981Z,22.5
2022-09-07T16:33:53.953Z,22.4
2022-09-07T16:43:56.536Z,22.7
2022-09-07T16:53:58.693Z,22.1
2022-09-07T17:04:00.486Z,21.7
2022-09-07T17:14:02.445Z,21.5
2022-09-07T17:24:04.537Z,21.3
2022-09-07T17:34:06.085Z,21.1
2022-09-07T17:44:08.064Z,21
2022-09-07T17:54:11.546Z,20.8
2022-09-07T18:04:12.881Z,20.6
2022-09-07T18:14:15.435Z,20.5
2022-09-07T18:24:17.207Z,20.2
2022-09-07T18:34:19.316Z,19.8
2022-09-07T18:54:23.206Z,19.3
2022-09-07T19:14:27.474Z,18.9
2022-09-07T19:24:29.603Z,18.6
2022-09-07T19:34:31.562Z,18.4
2022-09-07T19:44:33.411Z,18.2
2022-09-07T19:54:35.661Z,18
2022-09-07T20:04:38.190Z,17.8
2022-09-07T20:14:40.671Z,17.7
2022-09-07T20:24:42.976Z,17.5
2022-09-07T20:34:44.664Z,17.5
2022-09-07T20:44:46.820Z,17.4
2022-09-07T20:54:49.087Z,17.3
2022-09-07T21:04:51.331Z,17.3
2022-09-07T21:14:53.140Z,17.2
2022-09-07T21:24:55.531Z,17.1
2022-09-07T21:34:58.079Z,17
2022-09-07T21:57:40.659Z,16.8
2022-09-07T22:15:15.757Z,16.7
2022-09-07T22:35:19.846Z,16.6
2022-09-07T22:55:24.716Z,16.3
2022-09-07T23:15:28.939Z,16.1
2022-09-07T23:25:30.663Z,16.3
2022-09-07T23:35:32.520Z,16.3
2022-09-07T23:45:34.448Z,16.4
2022-09-07T23:55:36.627Z,16.4
